x

West Sea Otter (46204) Wave Buoy

11:00am - Sat 25th Jun 2016 All times are PDT. -7 hours from GMT.

  • Sig Wave height 4.3ft
  • Peak Period 5s
  • Wind
    13mph, 16mph gusts
  • Sea Temp 55°f
  • 空気 Temp 55°f
  • Sea Pressure 1024.5mb
  • West Sea Otter
  • West Sea Otter

More Historic Weather Station data

Upgrade to MSW Pro to gain access to the past 30 days of data for over 8000 Wavebouys and Weather Stations around the globe.

Join Pro

Comparision Forecast

View Surf forecast
   
Sat 06/25 11:00am 4.5ft 5s 13 16 mph 1024.5mb 55f 55f
10:00am 4.5ft 17s 13 16 mph 1024.1mb 55f 55f
9:00am 5ft 5s 13 18 mph 1023.8mb 55f 55f
8:00am 4.5ft 5s 22 29 mph 1023.1mb 55f 53f
7:00am 4.5ft 17s 22 25 mph 1022.9mb 55f 53f
6:00am 4.5ft 18s 20 25 mph 1022.8mb 55f 53f
5:00am 3.5ft 17s 20 25 mph 1022.8mb 55f 53f
4:00am 3.5ft 17s 18 22 mph 1023.2mb 55f 54f
3:00am 3.5ft 7s 18 20 mph 1023.3mb 55f 54f
2:00am 3.5ft 17s 16 18 mph 1023.7mb 55f 54f
1:00am 3.5ft 6s 13 18 mph 1024.1mb 55f 53f
12:00am 3.5ft 17s 11 13 mph 1024.4mb 55f 54f
Fri 06/24 11:00pm 3.5ft 17s 9 11 mph 1024.3mb 55f 55f
10:00pm 3.5ft 17s 11 13 mph 1024.3mb 55f 55f
9:00pm 3.5ft 17s 9 11 mph 1024mb 55f 55f
8:00pm 4ft 18s 11 13 mph 1024mb 55f 55f
7:00pm 3.5ft 17s 11
mph
1023.5mb 55f 55f
6:00pm 4ft 17s 9 11 mph 1023.2mb 55f 55f
5:00pm 4.5ft 8s 11 13 mph 1023.1mb 55f 55f
4:00pm 5ft 6s 13 16 mph 1022.9mb 55f 55f
3:00pm 5ft 8s 13 18 mph 1022.7mb 55f 55f
2:00pm 4.5ft 8s 83 110 mph 1022.3mb 56f 57f
1:00pm 4.5ft 7s 20 76 mph 1021.6mb 55f 56f
12:00pm 4.5ft 7s 7
mph
1021.1mb 55f 55f
11:00am 4.5ft 8s 7 9 mph 1020.6mb 55f 55f
10:00am 4ft 18s 7 9 mph 1020.3mb 55f 55f
9:00am 4ft 8s 7 9 mph 1019.7mb 55f 55f
8:00am 4.5ft 7s 7 9 mph 1019.2mb 55f 55f
7:00am 4.5ft 7s 9 11 mph 1018.8mb 55f 55f
6:00am 4.5ft 18s 11 13 mph 1018.4mb 55f 55f
5:00am 5ft 6s 13 16 mph 1017.9mb 55f 55f
4:00am 4.5ft 6s 13 16 mph 1017.6mb 55f 55f
3:00am 5ft 7s 13 16 mph 1017.3mb 55f 55f
2:00am 5ft 6s 11 13 mph 1017.3mb 55f 55f
1:00am 5ft 7s 13 16 mph 1017.1mb 55f 55f
12:00am 5ft 8s 13 18 mph 1016.9mb 55f 55f
Thu 06/23 11:00pm 5ft 7s 13 18 mph 1016.8mb 56f 55f
10:00pm 5ft 7s 16 18 mph 1016.5mb 56f 55f
9:00pm 4.5ft 7s 16 20 mph 1016.1mb 56f 56f
8:00pm 4ft 7s 11 13 mph 1016.2mb 56f 56f
7:00pm 4.5ft 8s 9 11 mph 1015.7mb 56f 56f
6:00pm 4.5ft 6s 11 13 mph 1015.9mb 56f 55f
5:00pm 4.5ft 6s 9 11 mph 1015.6mb 56f 55f
4:00pm 4.5ft 7s 11 13 mph 1015.3mb 56f 55f
3:00pm 5ft 6s 11 13 mph 1014.9mb 56f 55f
2:00pm 5ft 6s 13 16 mph 1014.3mb 56f 55f
1:00pm 4.5ft 5s 13
mph
1014mb 56f 55f
12:00pm 4.5ft 5s 13 18 mph 1013.8mb 56f 56f
11:00am 4ft 8s 13 18 mph 1013.6mb 56f 56f
10:00am 4ft 8s 13 18 mph 1013.6mb 56f 56f
9:00am 3.5ft 9s 16 18 mph 1013.2mb 56f 56f
8:00am 3.5ft 7s 16 18 mph 1013.3mb 56f 56f
7:00am 3.5ft 8s 13 16 mph 1013.3mb 56f 56f
6:00am 3.5ft 8s 11 13 mph 1013.1mb 56f 55f
5:00am 4ft 7s 13 16 mph 1013.3mb 56f 55f
4:00am 3.5ft 8s 13 16 mph 1013.3mb 56f 55f
3:00am 4ft 8s 13 18 mph 1013.7mb 56f 55f
2:00am 4ft 7s 16 18 mph 1013.8mb 56f 55f
1:00am 4ft 8s 16 18 mph 1014.4mb 56f 55f
12:00am 3.5ft 8s 13 18 mph 1015mb 56f 55f
Wed 06/22 11:00pm 3.5ft 8s 11 13 mph 1015.6mb 57f 55f
10:00pm 3.5ft 7s 9 11 mph 1016.1mb 57f 55f
9:00pm 3.5ft 7s 4 7 mph 1016.1mb 58f 56f
8:00pm 3.5ft 8s 2 4 mph 1016.5mb 58f 57f
7:00pm 3.5ft 8s  -  2 mph 1016.8mb 59f 58f
6:00pm 3.5ft 7s  -  2 mph 1017.2mb 58f 57f
5:00pm 3.5ft 7s 20 72 mph 1017.3mb 59f 58f
4:00pm 3.5ft 7s 11 49 mph 1017.5mb 58f 57f
3:00pm 4ft 8s 11 16 mph 1017.6mb 57f 56f
2:00pm 4.5ft 8s 9 11 mph 1017.8mb 57f 55f
1:00pm 4.5ft 7s 9 11 mph 1017.8mb 56f 55f
12:00pm 4.5ft 8s 11 13 mph 1017.8mb 56f 55f
11:00am 4.5ft 7s 4
mph
1017.6mb 56f 55f
10:00am 4ft 7s 7 9 mph 1017.8mb 56f 54f
9:00am 4ft 8s 7 9 mph 1017.8mb 55f 53f
8:00am 4ft 8s 7
mph
1017.6mb 55f 53f
7:00am 4.5ft 8s 7 9 mph 1017.7mb 55f 53f
6:00am 4.5ft 8s 4 7 mph 1017.7mb 55f 53f
5:00am 4.5ft 8s 4 7 mph 1017.6mb 55f 53f
4:00am 5ft 8s 7
mph
1017.8mb 55f 53f
3:00am 5ft 8s 9
mph
1018.1mb 56f 54f
2:00am 5ft 8s 7 9 mph 1018.1mb 56f 54f
1:00am 5ft 8s 7 9 mph 1018.3mb 56f 54f
12:00am 5ft 8s 7
mph
1018.8mb 55f 54f
Tue 06/21 11:00pm 5.5ft 8s 9
mph
1018.9mb 55f 53f
10:00pm 5.5ft 8s 11 16 mph 1018.9mb 55f 54f
9:00pm 6ft 8s 13 16 mph 1018.7mb 55f 54f
8:00pm 5.5ft 7s 16 20 mph 1018.8mb 55f 54f